Aviation Digital Data Service (ADDS)

Output produced by METARs form (0303 UTC 18 June 2019)
found at http://www.aviationweather.gov/metar/data/
 
Forecast for: NFFN (NANDI FIJI , FJ)
Text: TAF NFFN 172316Z 1800/1824 28010KT 9999 FEW028 SCT100
Forecast period: 0000 to 0600 UTC 18 June 2019
Forecast type: FROM: standard forecast or significant change
Winds: from the W (280 degrees) at 12 MPH (10 knots; 5.1 m/s)
Visibility: 6 or more miles 10+ km)
Ceiling: at least 12,000 feet AGL
Clouds: few clouds at 2800 feet AGL
scattered clouds at 10000 feet AGL
Weather: no significant weather forecast for this period
Text: BECMG 1806/1808 10006KT
Forecast period: 0600 to 2100 UTC 18 June 2019
Forecast type: BECOMING: Conditions expected to become as follows by 0800 UTC 18 June 2019
Winds: from the E (100 degrees) at 7 MPH (6 knots; 3.1 m/s)
Visibility: 6 or more miles 10+ km)
Ceiling: at least 12,000 feet AGL
Clouds: few clouds at 2800 feet AGL
scattered clouds at 10000 feet AGL
Weather: no significant weather forecast for this period
Text: BECMG 1821/1823 29010KT
Forecast period: 2100 UTC 18 June 2019 to 0000 UTC 19 June 2019
Forecast type: BECOMING: Conditions expected to become as follows by 2300 UTC 18 June 2019
Winds: from the WNW (290 degrees) at 12 MPH (10 knots; 5.1 m/s)
Visibility: 6 or more miles 10+ km)
Ceiling: at least 12,000 feet AGL
Clouds: few clouds at 2800 feet AGL
scattered clouds at 10000 feet AGL
Weather: no significant weather forecast for this period